sensor_id;sensor_type;location;lat;lon;timestamp;pressure;altitude;pressure_sealevel;temperature;humidity
59055;BME280;44845;51.444;7.460;2024-01-16T00:00:01;98898.03;;;2.50;81.90
59055;BME280;44845;51.444;7.460;2024-01-16T00:02:26;98904.88;;;2.46;82.16
59055;BME280;44845;51.444;7.460;2024-01-16T00:04:52;98897.06;;;2.40;82.57
59055;BME280;44845;51.444;7.460;2024-01-16T00:07:17;98904.88;;;2.45;82.21
59055;BME280;44845;51.444;7.460;2024-01-16T00:09:42;98902.34;;;2.51;82.02
59055;BME280;44845;51.444;7.460;2024-01-16T00:12:08;98904.00;;;2.46;81.98
59055;BME280;44845;51.444;7.460;2024-01-16T00:14:36;98904.00;;;2.43;82.28
59055;BME280;44845;51.444;7.460;2024-01-16T00:17:02;98909.22;;;2.49;82.04
59055;BME280;44845;51.444;7.460;2024-01-16T00:19:27;98898.78;;;2.41;81.53
59055;BME280;44845;51.444;7.460;2024-01-16T00:21:52;98891.00;;;2.40;81.81
59055;BME280;44845;51.444;7.460;2024-01-16T00:24:18;98905.69;;;2.41;81.83
59055;BME280;44845;51.444;7.460;2024-01-16T00:26:43;98910.94;;;2.47;81.35
59055;BME280;44845;51.444;7.460;2024-01-16T00:29:09;98909.19;;;2.46;81.98
59055;BME280;44845;51.444;7.460;2024-01-16T00:31:37;98914.31;;;2.40;80.90
59055;BME280;44845;51.444;7.460;2024-01-16T00:34:02;98924.63;;;2.36;81.49
59055;BME280;44845;51.444;7.460;2024-01-16T00:36:28;98923.81;;;2.42;81.40
59055;BME280;44845;51.444;7.460;2024-01-16T00:38:53;98927.28;;;2.46;81.88
59055;BME280;44845;51.444;7.460;2024-01-16T00:41:19;98921.25;;;2.44;81.34
59055;BME280;44845;51.444;7.460;2024-01-16T00:43:45;98927.25;;;2.41;81.18
59055;BME280;44845;51.444;7.460;2024-01-16T00:46:10;98928.22;;;2.48;81.54
59055;BME280;44845;51.444;7.460;2024-01-16T00:48:36;98923.00;;;2.45;81.21
59055;BME280;44845;51.444;7.460;2024-01-16T00:51:01;98923.81;;;2.44;81.20
59055;BME280;44845;51.444;7.460;2024-01-16T00:53:27;98929.84;;;2.40;81.56
59055;BME280;44845;51.444;7.460;2024-01-16T00:55:52;98934.16;;;2.41;81.34
59055;BME280;44845;51.444;7.460;2024-01-16T00:58:19;98940.19;;;2.40;81.48
59055;BME280;44845;51.444;7.460;2024-01-16T01:00:45;98947.81;;;2.29;81.77
59055;BME280;44845;51.444;7.460;2024-01-16T01:03:10;98941.03;;;2.39;82.10
59055;BME280;44845;51.444;7.460;2024-01-16T01:05:35;98947.06;;;2.38;81.45
59055;BME280;44845;51.444;7.460;2024-01-16T01:08:01;98945.28;;;2.30;82.00
59055;BME280;44845;51.444;7.460;2024-01-16T01:10:26;98957.38;;;2.34;80.75
59055;BME280;44845;51.444;7.460;2024-01-16T01:12:51;98953.13;;;2.40;81.76
59055;BME280;44845;51.444;7.460;2024-01-16T01:15:19;98960.88;;;2.40;81.61
59055;BME280;44845;51.444;7.460;2024-01-16T01:17:48;98964.41;;;2.45;81.53
59055;BME280;44845;51.444;7.460;2024-01-16T01:20:14;98958.44;;;2.51;81.44
59055;BME280;44845;51.444;7.460;2024-01-16T01:22:39;98964.31;;;2.39;81.49
59055;BME280;44845;51.444;7.460;2024-01-16T01:25:05;98962.69;;;2.47;80.82
59055;BME280;44845;51.444;7.460;2024-01-16T01:27:31;98970.47;;;2.45;81.38
59055;BME280;44845;51.444;7.460;2024-01-16T01:29:57;98964.41;;;2.45;80.81
59055;BME280;44845;51.444;7.460;2024-01-16T01:32:23;98962.69;;;2.47;81.18
59055;BME280;44845;51.444;7.460;2024-01-16T01:34:48;98969.53;;;2.42;80.54
59055;BME280;44845;51.444;7.460;2024-01-16T01:37:14;98970.41;;;2.44;81.04
59055;BME280;44845;51.444;7.460;2024-01-16T01:39:40;98973.97;;;2.51;80.76
59055;BME280;44845;51.444;7.460;2024-01-16T01:42:05;98971.34;;;2.49;80.58
59055;BME280;44845;51.444;7.460;2024-01-16T01:44:30;98968.69;;;2.44;80.74
59055;BME280;44845;51.444;7.460;2024-01-16T01:46:58;98968.72;;;2.46;81.00
59055;BME280;44845;51.444;7.460;2024-01-16T01:49:25;98973.00;;;2.44;80.65
59055;BME280;44845;51.444;7.460;2024-01-16T01:51:51;98975.63;;;2.48;80.47
59055;BME280;44845;51.444;7.460;2024-01-16T01:54:18;98973.94;;;2.49;80.70
59055;BME280;44845;51.444;7.460;2024-01-16T01:56:44;98984.19;;;2.40;80.75
59055;BME280;44845;51.444;7.460;2024-01-16T01:59:11;98976.47;;;2.46;80.46
59055;BME280;44845;51.444;7.460;2024-01-16T02:01:36;98982.56;;;2.50;80.44
59055;BME280;44845;51.444;7.460;2024-01-16T02:04:03;98992.72;;;2.34;80.68
59055;BME280;44845;51.444;7.460;2024-01-16T02:06:29;98989.25;;;2.30;81.03
59055;BME280;44845;51.444;7.460;2024-01-16T02:08:55;98986.66;;;2.30;80.71
59055;BME280;44845;51.444;7.460;2024-01-16T02:11:20;98993.56;;;2.30;80.73
59055;BME280;44845;51.444;7.460;2024-01-16T02:13:46;98990.19;;;2.37;80.41
59055;BME280;44845;51.444;7.460;2024-01-16T02:16:40;98981.59;;;2.41;80.08
59055;BME280;44845;51.444;7.460;2024-01-16T02:19:06;98985.13;;;2.45;79.87
59055;BME280;44845;51.444;7.460;2024-01-16T02:21:37;98986.81;;;2.46;79.97
59055;BME280;44845;51.444;7.460;2024-01-16T02:24:05;98986.81;;;2.46;80.07
59055;BME280;44845;51.444;7.460;2024-01-16T02:26:31;98985.84;;;2.36;80.60
59055;BME280;44845;51.444;7.460;2024-01-16T02:28:57;98985.03;;;2.39;80.46
59055;BME280;44845;51.444;7.460;2024-01-16T02:31:22;98984.19;;;2.41;79.98
59055;BME280;44845;51.444;7.460;2024-01-16T02:33:47;98978.22;;;2.45;79.96
59055;BME280;44845;51.444;7.460;2024-01-16T02:36:13;98983.31;;;2.39;80.09
59055;BME280;44845;51.444;7.460;2024-01-16T02:38:38;98983.25;;;2.34;80.43
59055;BME280;44845;51.444;7.460;2024-01-16T02:41:04;98981.53;;;2.33;80.71
59055;BME280;44845;51.444;7.460;2024-01-16T02:43:31;98984.91;;;2.29;81.04
59055;BME280;44845;51.444;7.460;2024-01-16T02:45:56;98985.03;;;2.39;80.64
59055;BME280;44845;51.444;7.460;2024-01-16T02:48:23;98983.25;;;2.33;80.27
59055;BME280;44845;51.444;7.460;2024-01-16T02:50:48;98987.56;;;2.34;80.79
59055;BME280;44845;51.444;7.460;2024-01-16T02:53:13;98987.50;;;2.29;80.56
59055;BME280;44845;51.444;7.460;2024-01-16T02:55:39;98987.59;;;2.37;80.81
59055;BME280;44845;51.444;7.460;2024-01-16T02:58:04;98983.25;;;2.34;80.96
59055;BME280;44845;51.444;7.460;2024-01-16T03:00:29;98971.19;;;2.36;80.90
59055;BME280;44845;51.444;7.460;2024-01-16T03:02:55;98974.66;;;2.39;80.20
59055;BME280;44845;51.444;7.460;2024-01-16T03:05:20;98969.59;;;2.45;79.99
59055;BME280;44845;51.444;7.460;2024-01-16T03:07:45;98983.34;;;2.42;80.19
59055;BME280;44845;51.444;7.460;2024-01-16T03:10:11;98978.22;;;2.47;79.87
59055;BME280;44845;51.444;7.460;2024-01-16T03:12:36;98983.34;;;2.44;79.86
59055;BME280;44845;51.444;7.460;2024-01-16T03:15:02;98986.81;;;2.46;80.00
59055;BME280;44845;51.444;7.460;2024-01-16T03:17:28;98985.16;;;2.48;80.43
59055;BME280;44845;51.444;7.460;2024-01-16T03:19:53;98986.81;;;2.44;80.48
59055;BME280;44845;51.444;7.460;2024-01-16T03:22:18;98987.75;;;2.51;80.37
59055;BME280;44845;51.444;7.460;2024-01-16T03:24:44;98983.47;;;2.53;80.25
59055;BME280;44845;51.444;7.460;2024-01-16T03:27:09;98977.44;;;2.53;80.58
59055;BME280;44845;51.444;7.460;2024-01-16T03:29:34;98985.16;;;2.51;80.64
59055;BME280;44845;51.444;7.460;2024-01-16T03:32:00;98978.22;;;2.47;80.77
59055;BME280;44845;51.444;7.460;2024-01-16T03:34:26;98978.28;;;2.50;80.41
59055;BME280;44845;51.444;7.460;2024-01-16T03:36:52;98975.69;;;2.50;80.44
59055;BME280;44845;51.444;7.460;2024-01-16T03:39:17;98983.44;;;2.50;80.39
59055;BME280;44845;51.444;7.460;2024-01-16T03:41:43;98983.53;;;2.59;80.23
59055;BME280;44845;51.444;7.460;2024-01-16T03:44:08;98985.25;;;2.57;80.26
59055;BME280;44845;51.444;7.460;2024-01-16T03:46:34;98987.78;;;2.53;80.96
59055;BME280;44845;51.444;7.460;2024-01-16T03:48:59;98989.56;;;2.57;80.64
59055;BME280;44845;51.444;7.460;2024-01-16T03:51:25;98986.97;;;2.55;80.75
59055;BME280;44845;51.444;7.460;2024-01-16T03:53:50;98990.34;;;2.48;80.79
59055;BME280;44845;51.444;7.460;2024-01-16T03:56:16;98991.22;;;2.52;81.24
59055;BME280;44845;51.444;7.460;2024-01-16T03:58:42;98993.84;;;2.56;80.66
59055;BME280;44845;51.444;7.460;2024-01-16T04:01:07;98992.00;;;2.46;80.75
59055;BME280;44845;51.444;7.460;2024-01-16T04:03:33;99004.16;;;2.50;80.91
59055;BME280;44845;51.444;7.460;2024-01-16T04:05:59;98999.06;;;2.58;80.64
59055;BME280;44845;51.444;7.460;2024-01-16T04:08:25;98990.38;;;2.54;80.94
59055;BME280;44845;51.444;7.460;2024-01-16T04:10:50;98992.06;;;2.49;81.12
59055;BME280;44845;51.444;7.460;2024-01-16T04:13:15;98987.78;;;2.54;80.94
59055;BME280;44845;51.444;7.460;2024-01-16T04:15:41;98987.78;;;2.53;81.21
59055;BME280;44845;51.444;7.460;2024-01-16T04:18:06;98980.03;;;2.54;81.07
59055;BME280;44845;51.444;7.460;2024-01-16T04:20:32;98980.06;;;2.57;81.21
59055;BME280;44845;51.444;7.460;2024-01-16T04:22:57;98990.34;;;2.48;81.14
59055;BME280;44845;51.444;7.460;2024-01-16T04:25:23;98975.72;;;2.55;80.99
59055;BME280;44845;51.444;7.460;2024-01-16T04:27:48;98979.16;;;2.54;80.56
59055;BME280;44845;51.444;7.460;2024-01-16T04:30:14;98980.03;;;2.54;80.72
59055;BME280;44845;51.444;7.460;2024-01-16T04:32:39;98981.78;;;2.55;80.67
59055;BME280;44845;51.444;7.460;2024-01-16T04:35:05;98978.28;;;2.50;81.03
59055;BME280;44845;51.444;7.460;2024-01-16T04:37:30;98974.91;;;2.61;80.96
59055;BME280;44845;51.444;7.460;2024-01-16T04:39:55;98976.59;;;2.55;80.71
59055;BME280;44845;51.444;7.460;2024-01-16T04:42:23;98980.00;;;2.51;81.06
59055;BME280;44845;51.444;7.460;2024-01-16T04:44:48;98975.69;;;2.53;81.07
59055;BME280;44845;51.444;7.460;2024-01-16T04:47:13;98981.84;;;2.62;80.75
59055;BME280;44845;51.444;7.460;2024-01-16T04:49:41;98980.94;;;2.58;80.69
59055;BME280;44845;51.444;7.460;2024-01-16T04:52:06;98980.97;;;2.61;80.61
59055;BME280;44845;51.444;7.460;2024-01-16T04:54:32;98981.84;;;2.63;80.90
59055;BME280;44845;51.444;7.460;2024-01-16T04:56:57;98981.69;;;2.49;81.32
59055;BME280;44845;51.444;7.460;2024-01-16T04:59:23;98980.03;;;2.54;80.73
59055;BME280;44845;51.444;7.460;2024-01-16T05:01:48;98978.31;;;2.56;80.49
59055;BME280;44845;51.444;7.460;2024-01-16T05:04:13;98982.63;;;2.54;80.51
59055;BME280;44845;51.444;7.460;2024-01-16T05:06:39;98980.91;;;2.55;80.57
59055;BME280;44845;51.444;7.460;2024-01-16T05:09:04;98973.19;;;2.58;80.66
59055;BME280;44845;51.444;7.460;2024-01-16T05:11:30;98967.13;;;2.59;80.25
59055;BME280;44845;51.444;7.460;2024-01-16T05:13:55;98971.53;;;2.65;80.79
59055;BME280;44845;51.444;7.460;2024-01-16T05:16:26;98968.84;;;2.58;80.73
59055;BME280;44845;51.444;7.460;2024-01-16T05:18:55;98963.63;;;2.54;80.65
59055;BME280;44845;51.444;7.460;2024-01-16T05:21:20;98966.19;;;2.51;80.79
59055;BME280;44845;51.444;7.460;2024-01-16T05:23:46;98959.31;;;2.54;80.71
59055;BME280;44845;51.444;7.460;2024-01-16T05:26:11;98966.22;;;2.52;81.05
59055;BME280;44845;51.444;7.460;2024-01-16T05:28:38;98967.69;;;2.31;81.10
59055;BME280;44845;51.444;7.460;2024-01-16T05:31:04;98961.91;;;2.56;80.72
59055;BME280;44845;51.444;7.460;2024-01-16T05:33:29;98961.06;;;2.55;81.18
59055;BME280;44845;51.444;7.460;2024-01-16T05:35:57;98961.00;;;2.49;80.68
59055;BME280;44845;51.444;7.460;2024-01-16T05:38:22;98957.66;;;2.59;80.62
59055;BME280;44845;51.444;7.460;2024-01-16T05:40:47;98947.22;;;2.53;80.64
59055;BME280;44845;51.444;7.460;2024-01-16T05:43:13;98951.47;;;2.46;80.89
59055;BME280;44845;51.444;7.460;2024-01-16T05:45:39;98953.31;;;2.57;80.71
59055;BME280;44845;51.444;7.460;2024-01-16T05:48:05;98947.84;;;2.32;80.92
59055;BME280;44845;51.444;7.460;2024-01-16T05:50:33;98954.13;;;2.54;80.54
59055;BME280;44845;51.444;7.460;2024-01-16T05:52:58;98949.00;;;2.57;80.33
59055;BME280;44845;51.444;7.460;2024-01-16T05:55:23;98952.38;;;2.50;80.09
59055;BME280;44845;51.444;7.460;2024-01-16T05:57:49;98945.47;;;2.49;80.73
59055;BME280;44845;51.444;7.460;2024-01-16T06:00:14;98947.22;;;2.50;80.48
59055;BME280;44845;51.444;7.460;2024-01-16T06:02:40;98936.03;;;2.54;80.14
59055;BME280;44845;51.444;7.460;2024-01-16T06:05:06;98939.56;;;2.63;80.29
59055;BME280;44845;51.444;7.460;2024-01-16T06:07:32;98943.00;;;2.63;80.13
59055;BME280;44845;51.444;7.460;2024-01-16T06:09:57;98952.50;;;2.63;80.29
59055;BME280;44845;51.444;7.460;2024-01-16T06:12:22;98947.28;;;2.59;79.91
59055;BME280;44845;51.444;7.460;2024-01-16T06:14:48;98946.41;;;2.59;79.88
59055;BME280;44845;51.444;7.460;2024-01-16T06:17:13;98949.84;;;2.55;80.15
59055;BME280;44845;51.444;7.460;2024-01-16T06:19:39;98946.50;;;2.65;79.81
59055;BME280;44845;51.444;7.460;2024-01-16T06:22:04;98943.81;;;2.57;79.94
59055;BME280;44845;51.444;7.460;2024-01-16T06:24:30;98952.47;;;2.59;79.58
59055;BME280;44845;51.444;7.460;2024-01-16T06:27:02;98943.88;;;2.62;79.94
59055;BME280;44845;51.444;7.460;2024-01-16T06:29:28;98950.72;;;2.55;79.47
59055;BME280;44845;51.444;7.460;2024-01-16T06:31:54;98940.31;;;2.52;80.01
59055;BME280;44845;51.444;7.460;2024-01-16T06:34:20;98944.66;;;2.55;79.65
59055;BME280;44845;51.444;7.460;2024-01-16T06:36:45;98949.00;;;2.57;79.60
59055;BME280;44845;51.444;7.460;2024-01-16T06:39:10;98950.66;;;2.51;79.12
59055;BME280;44845;51.444;7.460;2024-01-16T06:41:40;98952.47;;;2.59;79.00
59055;BME280;44845;51.444;7.460;2024-01-16T06:44:05;98951.59;;;2.59;79.03
59055;BME280;44845;51.444;7.460;2024-01-16T06:46:31;98949.00;;;2.59;78.90
59055;BME280;44845;51.444;7.460;2024-01-16T06:48:56;98949.00;;;2.61;79.08
59055;BME280;44845;51.444;7.460;2024-01-16T06:51:21;98955.06;;;2.58;79.01
59055;BME280;44845;51.444;7.460;2024-01-16T06:53:47;98958.41;;;2.47;79.20
59055;BME280;44845;51.444;7.460;2024-01-16T06:56:12;98962.69;;;2.47;79.14
59055;BME280;44845;51.444;7.460;2024-01-16T06:58:37;98959.31;;;2.54;79.11
59055;BME280;44845;51.444;7.460;2024-01-16T07:01:03;98962.81;;;2.59;78.62
59055;BME280;44845;51.444;7.460;2024-01-16T07:03:28;98967.09;;;2.53;78.42
59055;BME280;44845;51.444;7.460;2024-01-16T07:05:54;98959.31;;;2.54;78.23
59055;BME280;44845;51.444;7.460;2024-01-16T07:08:19;98968.78;;;2.52;78.29
59055;BME280;44845;51.444;7.460;2024-01-16T07:10:45;98975.69;;;2.52;78.31
59055;BME280;44845;51.444;7.460;2024-01-16T07:13:11;98971.44;;;2.57;77.95
59055;BME280;44845;51.444;7.460;2024-01-16T07:15:37;98974.84;;;2.54;78.37
59055;BME280;44845;51.444;7.460;2024-01-16T07:18:03;98974.03;;;2.58;78.05
59055;BME280;44845;51.444;7.460;2024-01-16T07:20:28;98989.47;;;2.49;78.47
59055;BME280;44845;51.444;7.460;2024-01-16T07:22:53;98987.84;;;2.57;78.09
59055;BME280;44845;51.444;7.460;2024-01-16T07:25:19;98991.31;;;2.59;78.22
59055;BME280;44845;51.444;7.460;2024-01-16T07:27:44;98987.84;;;2.59;77.29
59055;BME280;44845;51.444;7.460;2024-01-16T07:30:13;99000.78;;;2.59;78.04
59055;BME280;44845;51.444;7.460;2024-01-16T07:32:39;98997.16;;;2.43;78.54
59055;BME280;44845;51.444;7.460;2024-01-16T07:35:04;98998.16;;;2.54;78.14
59055;BME280;44845;51.444;7.460;2024-01-16T07:37:30;99005.19;;;3.68;98.01
59055;BME280;44845;51.444;7.460;2024-01-16T07:39:55;99002.53;;;3.60;79.13
59055;BME280;44845;51.444;7.460;2024-01-16T07:42:20;99004.66;;;4.38;75.01
59055;BME280;44845;51.444;7.460;2024-01-16T07:44:46;99007.34;;;4.65;70.29
59055;BME280;44845;51.444;7.460;2024-01-16T07:47:11;99004.59;;;4.19;70.95
59055;BME280;44845;51.444;7.460;2024-01-16T07:49:36;99006.16;;;3.87;72.36
59055;BME280;44845;51.444;7.460;2024-01-16T07:52:02;99013.78;;;3.60;73.19
59055;BME280;44845;51.444;7.460;2024-01-16T07:54:27;99013.59;;;3.34;74.02
59055;BME280;44845;51.444;7.460;2024-01-16T07:56:53;99007.47;;;3.24;74.89
59055;BME280;44845;51.444;7.460;2024-01-16T07:59:18;99011.63;;;3.08;75.48
59055;BME280;44845;51.444;7.460;2024-01-16T08:01:43;99010.63;;;2.90;75.93
59055;BME280;44845;51.444;7.460;2024-01-16T08:04:09;99006.94;;;2.70;76.53
59055;BME280;44845;51.444;7.460;2024-01-16T08:06:34;99014.78;;;2.75;76.66
59055;BME280;44845;51.444;7.460;2024-01-16T08:09:00;99007.81;;;2.71;76.89
59055;BME280;44845;51.444;7.460;2024-01-16T08:11:25;99013.81;;;2.68;76.80
59055;BME280;44845;51.444;7.460;2024-01-16T08:13:50;99016.44;;;2.70;76.45
59055;BME280;44845;51.444;7.460;2024-01-16T08:16:16;99018.06;;;2.62;76.40
59055;BME280;44845;51.444;7.460;2024-01-16T08:18:41;99015.50;;;2.62;76.61
59055;BME280;44845;51.444;7.460;2024-01-16T08:21:06;99010.34;;;2.65;76.40
59055;BME280;44845;51.444;7.460;2024-01-16T08:23:33;99015.50;;;2.63;75.98
59055;BME280;44845;51.444;7.460;2024-01-16T08:25:58;99012.72;;;2.46;77.10
59055;BME280;44845;51.444;7.460;2024-01-16T08:28:24;99009.28;;;2.47;76.76
59055;BME280;44845;51.444;7.460;2024-01-16T08:30:50;99010.22;;;2.51;75.96
59055;BME280;44845;51.444;7.460;2024-01-16T08:33:15;99016.28;;;2.54;76.14
59055;BME280;44845;51.444;7.460;2024-01-16T08:35:40;99010.22;;;2.52;76.05
59055;BME280;44845;51.444;7.460;2024-01-16T08:38:06;99011.88;;;2.45;75.97
59055;BME280;44845;51.444;7.460;2024-01-16T08:40:31;99017.09;;;2.53;75.32
59055;BME280;44845;51.444;7.460;2024-01-16T08:42:56;99014.47;;;2.47;75.39
59055;BME280;44845;51.444;7.460;2024-01-16T08:45:22;99016.19;;;2.46;75.25
59055;BME280;44845;51.444;7.460;2024-01-16T08:47:47;99018.81;;;2.48;75.42
59055;BME280;44845;51.444;7.460;2024-01-16T08:50:13;99017.97;;;2.52;74.78
59055;BME280;44845;51.444;7.460;2024-01-16T08:52:39;99024.81;;;2.47;74.73
59055;BME280;44845;51.444;7.460;2024-01-16T08:55:05;99026.56;;;2.48;74.38
59055;BME280;44845;51.444;7.460;2024-01-16T08:57:30;99028.13;;;2.33;75.19
59055;BME280;44845;51.444;7.460;2024-01-16T08:59:55;99031.59;;;2.39;75.04
59055;BME280;44845;51.444;7.460;2024-01-16T09:02:21;99033.47;;;2.49;74.38
59055;BME280;44845;51.444;7.460;2024-01-16T09:04:47;99036.94;;;2.51;73.75
59055;BME280;44845;51.444;7.460;2024-01-16T09:07:12;99029.16;;;2.48;74.26
59055;BME280;44845;51.444;7.460;2024-01-16T09:09:41;99030.03;;;2.50;74.16
59055;BME280;44845;51.444;7.460;2024-01-16T09:12:07;99031.72;;;2.46;73.58
59055;BME280;44845;51.444;7.460;2024-01-16T09:14:32;99026.59;;;2.51;73.93
59055;BME280;44845;51.444;7.460;2024-01-16T09:16:58;99024.81;;;2.47;73.68
59055;BME280;44845;51.444;7.460;2024-01-16T09:19:24;99035.31;;;2.59;73.14
59055;BME280;44845;51.444;7.460;2024-01-16T09:21:49;99036.16;;;2.57;73.32
59055;BME280;44845;51.444;7.460;2024-01-16T09:24:14;99040.41;;;2.53;73.15
59055;BME280;44845;51.444;7.460;2024-01-16T09:26:40;99035.22;;;2.53;73.19
59055;BME280;44845;51.444;7.460;2024-01-16T09:29:05;99034.34;;;2.48;73.47
59055;BME280;44845;51.444;7.460;2024-01-16T09:31:30;99037.84;;;2.55;73.23
59055;BME280;44845;51.444;7.460;2024-01-16T09:33:55;99035.28;;;2.56;72.77
59055;BME280;44845;51.444;7.460;2024-01-16T09:36:21;99040.44;;;2.56;73.05
59055;BME280;44845;51.444;7.460;2024-01-16T09:38:46;99030.13;;;2.58;72.52
59055;BME280;44845;51.444;7.460;2024-01-16T09:41:13;99028.47;;;2.65;72.62
59055;BME280;44845;51.444;7.460;2024-01-16T09:43:38;99034.53;;;2.67;72.30
59055;BME280;44845;51.444;7.460;2024-01-16T09:46:05;99036.22;;;2.63;72.05
59055;BME280;44845;51.444;7.460;2024-01-16T09:48:32;99034.63;;;2.75;72.06
59055;BME280;44845;51.444;7.460;2024-01-16T09:50:58;99028.66;;;2.84;71.26
59055;BME280;44845;51.444;7.460;2024-01-16T09:53:23;99032.00;;;2.73;71.90
59055;BME280;44845;51.444;7.460;2024-01-16T09:55:50;99038.00;;;2.69;70.46
59055;BME280;44845;51.444;7.460;2024-01-16T09:58:19;99034.63;;;2.75;70.88
59055;BME280;44845;51.444;7.460;2024-01-16T10:00:46;99028.63;;;2.77;70.62
59055;BME280;44845;51.444;7.460;2024-01-16T10:03:13;99023.41;;;2.74;71.45
59055;BME280;44845;51.444;7.460;2024-01-16T10:05:42;99026.00;;;2.76;71.33
59055;BME280;44845;51.444;7.460;2024-01-16T10:08:08;99022.59;;;2.80;70.88
59055;BME280;44845;51.444;7.460;2024-01-16T10:10:33;99030.34;;;2.78;70.75
59055;BME280;44845;51.444;7.460;2024-01-16T10:12:59;99025.19;;;2.81;70.64
59055;BME280;44845;51.444;7.460;2024-01-16T10:15:25;99016.53;;;2.79;71.18
59055;BME280;44845;51.444;7.460;2024-01-16T10:17:50;99019.09;;;2.78;70.90
59055;BME280;44845;51.444;7.460;2024-01-16T10:20:15;99013.91;;;2.76;70.63
59055;BME280;44845;51.444;7.460;2024-01-16T10:22:55;99007.91;;;2.80;70.66
59055;BME280;44845;51.444;7.460;2024-01-16T10:25:21;99006.22;;;2.83;70.18
59055;BME280;44845;51.444;7.460;2024-01-16T10:27:48;99007.91;;;2.77;70.56
59055;BME280;44845;51.444;7.460;2024-01-16T10:30:13;99007.91;;;2.77;70.48
59055;BME280;44845;51.444;7.460;2024-01-16T10:32:40;98997.59;;;2.84;70.43
59055;BME280;44845;51.444;7.460;2024-01-16T10:35:06;99011.41;;;2.86;70.08
59055;BME280;44845;51.444;7.460;2024-01-16T10:37:43;99006.25;;;2.86;69.78
59055;BME280;44845;51.444;7.460;2024-01-16T10:40:09;99005.41;;;2.87;69.81
59055;BME280;44845;51.444;7.460;2024-01-16T10:42:34;98997.59;;;2.84;69.49
59055;BME280;44845;51.444;7.460;2024-01-16T10:44:59;98991.53;;;2.80;69.67
59055;BME280;44845;51.444;7.460;2024-01-16T10:47:25;98990.66;;;2.79;69.32
59055;BME280;44845;51.444;7.460;2024-01-16T10:49:50;98978.66;;;2.91;69.87
59055;BME280;44845;51.444;7.460;2024-01-16T10:52:17;98984.63;;;2.85;70.09
59055;BME280;44845;51.444;7.460;2024-01-16T10:54:43;98982.88;;;2.81;68.44
59055;BME280;44845;51.444;7.460;2024-01-16T10:57:13;98989.91;;;2.93;69.08
59055;BME280;44845;51.444;7.460;2024-01-16T10:59:40;98989.06;;;2.94;69.30
59055;BME280;44845;51.444;7.460;2024-01-16T11:02:10;98995.97;;;2.95;68.73
59055;BME280;44845;51.444;7.460;2024-01-16T11:04:38;98989.03;;;2.92;69.59
59055;BME280;44845;51.444;7.460;2024-01-16T11:07:05;98988.16;;;2.89;69.21
59055;BME280;44845;51.444;7.460;2024-01-16T11:09:31;98995.97;;;2.95;69.00
59055;BME280;44845;51.444;7.460;2024-01-16T11:11:57;98985.59;;;2.92;68.73
59055;BME280;44845;51.444;7.460;2024-01-16T11:14:22;98979.53;;;2.93;69.08
59055;BME280;44845;51.444;7.460;2024-01-16T11:16:49;98979.53;;;2.93;69.14
59055;BME280;44845;51.444;7.460;2024-01-16T11:19:15;98975.19;;;2.89;68.78
59055;BME280;44845;51.444;7.460;2024-01-16T11:21:41;98969.19;;;2.93;69.25
59055;BME280;44845;51.444;7.460;2024-01-16T11:24:07;98975.16;;;2.83;69.31
59055;BME280;44845;51.444;7.460;2024-01-16T11:26:34;98973.44;;;2.85;69.52
59055;BME280;44845;51.444;7.460;2024-01-16T11:31:53;98982.75;;;2.68;69.24
59055;BME280;44845;51.444;7.460;2024-01-16T11:37:08;98985.44;;;2.78;68.75
59055;BME280;44845;51.444;7.460;2024-01-16T11:39:34;98979.38;;;2.76;68.63
59055;BME280;44845;51.444;7.460;2024-01-16T11:42:00;98974.97;;;2.67;68.36
59055;BME280;44845;51.444;7.460;2024-01-16T11:44:49;98980.13;;;2.62;68.33
59055;BME280;44845;51.444;7.460;2024-01-16T11:47:20;98981.00;;;2.63;68.22
59055;BME280;44845;51.444;7.460;2024-01-16T11:49:47;98983.53;;;2.59;68.16
59055;BME280;44845;51.444;7.460;2024-01-16T11:52:13;98993.94;;;2.66;68.74
59055;BME280;44845;51.444;7.460;2024-01-16T11:54:40;98983.63;;;2.69;68.51
59055;BME280;44845;51.444;7.460;2024-01-16T11:57:19;98982.84;;;2.75;68.47
59055;BME280;44845;51.444;7.460;2024-01-16T12:00:01;98969.91;;;2.76;68.12
59055;BME280;44845;51.444;7.460;2024-01-16T12:02:56;98970.75;;;2.75;68.12
59055;BME280;44845;51.444;7.460;2024-01-16T12:05:21;98964.69;;;2.73;67.47
59055;BME280;44845;51.444;7.460;2024-01-16T12:07:49;98960.44;;;2.80;67.97
59055;BME280;44845;51.444;7.460;2024-01-16T12:10:18;98953.47;;;2.73;68.05
59055;BME280;44845;51.444;7.460;2024-01-16T12:12:45;98952.50;;;2.63;67.40
59055;BME280;44845;51.444;7.460;2024-01-16T12:15:20;98949.97;;;2.67;67.55
59055;BME280;44845;51.444;7.460;2024-01-16T12:17:58;98943.03;;;2.65;67.67
59055;BME280;44845;51.444;7.460;2024-01-16T12:20:32;98945.63;;;2.65;68.54
59055;BME280;44845;51.444;7.460;2024-01-16T12:22:59;98943.00;;;2.63;68.20
59055;BME280;44845;51.444;7.460;2024-01-16T12:25:26;98935.16;;;2.52;68.85
59055;BME280;44845;51.444;7.460;2024-01-16T12:28:02;98933.44;;;2.56;68.21
59055;BME280;44845;51.444;7.460;2024-01-16T12:30:30;98932.59;;;2.58;68.42
59055;BME280;44845;51.444;7.460;2024-01-16T12:33:06;98917.91;;;2.54;68.06
59055;BME280;44845;51.444;7.460;2024-01-16T12:35:33;98915.34;;;2.59;68.11
59055;BME280;44845;51.444;7.460;2024-01-16T12:38:03;98908.38;;;2.52;68.67
59055;BME280;44845;51.444;7.460;2024-01-16T12:40:31;98902.41;;;2.59;69.06
59055;BME280;44845;51.444;7.460;2024-01-16T12:42:56;98905.88;;;2.59;67.93
59055;BME280;44845;51.444;7.460;2024-01-16T12:45:22;98906.75;;;2.63;67.89
59055;BME280;44845;51.444;7.460;2024-01-16T12:47:52;98901.53;;;2.58;68.12
59055;BME280;44845;51.444;7.460;2024-01-16T12:50:26;98901.50;;;2.51;68.12
59055;BME280;44845;51.444;7.460;2024-01-16T12:53:10;98895.47;;;2.56;68.31
59055;BME280;44845;51.444;7.460;2024-01-16T12:55:37;98896.34;;;2.58;67.44
59055;BME280;44845;51.444;7.460;2024-01-16T12:58:37;98908.41;;;2.56;67.47
59055;BME280;44845;51.444;7.460;2024-01-16T13:01:23;98900.66;;;2.56;67.30
59055;BME280;44845;51.444;7.460;2024-01-16T13:03:50;98899.78;;;2.53;67.15
59055;BME280;44845;51.444;7.460;2024-01-16T13:06:19;98904.03;;;2.49;67.86
59055;BME280;44845;51.444;7.460;2024-01-16T13:08:49;98907.50;;;2.48;68.05
59055;BME280;44845;51.444;7.460;2024-01-16T13:11:15;98906.72;;;2.55;66.72